Time;durP1;ratioP1;P1;durP2;ratioP2;P2;SDS_P1;SDS_P2;PMS_P1;PMS_P2;Temp;Humidity;BMP_temperature;BMP_pressure;BME280_temperature;BME280_humidity;BME280_pressure;Samples;Min_cycle;Max_cycle;Signal;HPM_P1;HPM_P2
2021/05/27 02:45:29;;;;;;;1.95;0.93;;;16.60;70.70;;;;;;5733895;23;20072;-79
2021/05/27 02:47:55;;;;;;;4.90;1.52;;;16.50;70.80;;;;;;4920508;29;20056;-79
2021/05/27 02:50:23;;;;;;;3.63;1.38;;;16.50;71.30;;;;;;4938470;29;20091;-79
2021/05/27 02:52:49;;;;;;;3.65;1.30;;;16.50;71.20;;;;;;4934951;29;20023;-79
2021/05/27 02:55:16;;;;;;;4.07;1.33;;;16.50;71.50;;;;;;4935375;29;20031;-79
2021/05/27 02:57:41;;;;;;;5.60;1.50;;;16.40;71.50;;;;;;4944478;29;20091;-79
2021/05/27 03:00:09;;;;;;;5.03;1.40;;;16.40;71.60;;;;;;4932836;29;20103;-79
2021/05/27 03:02:57;;;;;;;3.47;1.48;;;16.40;71.80;;;;;;4943549;29;20036;-79
2021/05/27 03:05:24;;;;;;;3.25;1.25;;;16.40;71.80;;;;;;4939293;29;20083;-79
2021/05/27 03:07:49;;;;;;;3.88;1.30;;;16.40;72.10;;;;;;4939082;29;20027;-78
2021/05/27 03:10:18;;;;;;;3.92;1.48;;;16.40;72.30;;;;;;4923594;29;20047;-79
2021/05/27 03:12:44;;;;;;;5.32;1.15;;;16.30;72.50;;;;;;4928527;29;20047;-79
2021/05/27 03:15:10;;;;;;;3.75;1.35;;;16.40;72.60;;;;;;4941638;29;20056;-79
2021/05/27 03:17:38;;;;;;;4.95;1.30;;;16.40;72.60;;;;;;4934635;29;20363;-79
2021/05/27 03:20:05;;;;;;;2.88;1.20;;;16.40;72.50;;;;;;4916724;29;20051;-78
2021/05/27 03:22:33;;;;;;;4.10;1.88;;;16.40;72.40;;;;;;4940756;29;20046;-79
2021/05/27 03:25:00;;;;;;;4.00;1.35;;;16.40;72.40;;;;;;4939453;29;20060;-79
2021/05/27 03:27:26;;;;;;;5.03;1.23;;;16.50;72.40;;;;;;4923129;29;20054;-79
2021/05/27 03:29:52;;;;;;;4.03;1.10;;;16.50;72.30;;;;;;4951105;29;20038;-79
2021/05/27 03:32:21;;;;;;;5.60;1.30;;;16.50;72.60;;;;;;4947200;29;20068;-79
2021/05/27 03:34:47;;;;;;;6.60;1.35;;;16.50;72.40;;;;;;4945547;29;20028;-79
2021/05/27 03:37:12;;;;;;;5.38;1.45;;;16.50;72.20;;;;;;4948183;29;20028;-79
2021/05/27 03:39:38;;;;;;;7.80;1.38;;;16.60;72.10;;;;;;4955085;29;20283;-79
2021/05/27 03:42:05;;;;;;;4.55;1.38;;;16.60;72.00;;;;;;4929131;29;20051;-79
2021/05/27 03:44:34;;;;;;;3.78;1.08;;;16.60;71.60;;;;;;4923799;29;20210;-79
2021/05/27 03:47:00;;;;;;;6.18;1.25;;;16.60;71.60;;;;;;4944698;29;20052;-79
2021/05/27 03:49:26;;;;;;;2.47;1.30;;;16.60;71.30;;;;;;4921913;29;20043;-79
2021/05/27 03:51:52;;;;;;;4.05;1.25;;;16.60;71.20;;;;;;4947518;29;20098;-79
2021/05/27 03:54:18;;;;;;;3.35;1.05;;;16.60;71.70;;;;;;4952033;29;20032;-79
2021/05/27 03:56:45;;;;;;;4.10;0.90;;;16.60;71.80;;;;;;4949808;29;20024;-79
2021/05/27 04:02:06;;;;;;;7.10;2.05;;;16.60;71.50;;;;;;4946318;29;20023;-79
2021/05/27 04:07:28;;;;;;;4.18;1.20;;;16.50;72.00;;;;;;4937842;29;20024;-79
2021/05/27 04:09:54;;;;;;;3.88;1.40;;;16.60;72.10;;;;;;4950360;29;20352;-79
2021/05/27 04:15:24;;;;;;;4.88;1.10;;;16.70;72.10;;;;;;4952525;29;20074;-79
2021/05/27 04:18:05;;;;;;;3.17;1.40;;;16.70;71.90;;;;;;4946120;29;20035;-79
2021/05/27 04:20:39;;;;;;;6.30;1.73;;;16.70;72.10;;;;;;4924530;29;20042;-78
2021/05/27 04:23:08;;;;;;;3.10;1.17;;;16.80;72.00;;;;;;4940939;29;20019;-79
2021/05/27 04:25:34;;;;;;;2.28;1.10;;;16.80;71.90;;;;;;4940679;29;20087;-79
2021/05/27 04:28:00;;;;;;;3.05;1.20;;;16.80;71.90;;;;;;4937402;29;20039;-79
2021/05/27 04:30:27;;;;;;;3.90;1.48;;;16.90;71.80;;;;;;4946490;29;20028;-79
2021/05/27 04:35:47;;;;;;;5.70;1.50;;;17.00;71.20;;;;;;4944084;29;20075;-78
2021/05/27 04:38:15;;;;;;;4.20;1.23;;;17.10;71.50;;;;;;4944379;29;20112;-79
2021/05/27 04:40:47;;;;;;;3.10;1.33;;;17.00;71.20;;;;;;4942887;29;20039;-79
2021/05/27 04:43:16;;;;;;;2.83;1.10;;;17.00;71.20;;;;;;4943003;29;20042;-79
2021/05/27 04:45:41;;;;;;;2.92;1.30;;;17.00;71.20;;;;;;4945304;29;20107;-79
2021/05/27 04:48:15;;;;;;;5.18;1.35;;;16.90;71.30;;;;;;4932581;29;20035;-79
2021/05/27 04:50:42;;;;;;;1.77;1.00;;;17.00;71.40;;;;;;4947645;29;20019;-79
2021/05/27 04:53:09;;;;;;;3.92;1.25;;;16.90;71.00;;;;;;4942787;29;20035;-78
2021/05/27 04:55:34;;;;;;;4.18;1.55;;;16.90;71.10;;;;;;4940539;29;20051;-79
2021/05/27 04:58:02;;;;;;;2.63;1.10;;;16.90;70.90;;;;;;4940073;29;20032;-79
2021/05/27 05:00:27;;;;;;;;;;;16.90;71.10;;;;;;4924019;29;20371;-78
2021/05/27 05:02:56;;;;;;;6.03;1.20;;;16.90;70.90;;;;;;4933528;29;19914;-79
2021/05/27 05:05:23;;;;;;;4.28;1.15;;;17.10;70.80;;;;;;4936199;29;20035;-78
2021/05/27 05:07:49;;;;;;;6.22;1.20;;;17.10;70.70;;;;;;4940947;29;20030;-79
2021/05/27 05:10:17;;;;;;;3.70;1.20;;;17.20;70.30;;;;;;4932095;29;20103;-78
2021/05/27 05:12:46;;;;;;;2.05;0.98;;;17.30;69.40;;;;;;4945756;29;20331;-79
2021/05/27 05:15:16;;;;;;;5.20;0.88;;;17.40;68.70;;;;;;4940745;29;20139;-79
2021/05/27 05:17:43;;;;;;;1.80;0.82;;;17.50;67.90;;;;;;4940465;29;20067;-79
2021/05/27 05:20:10;;;;;;;4.22;1.15;;;17.70;67.70;;;;;;4941842;29;20051;-79
2021/05/27 05:22:36;;;;;;;3.15;1.00;;;17.80;66.70;;;;;;4932386;29;20157;-79
2021/05/27 05:25:03;;;;;;;1.95;0.63;;;17.90;66.70;;;;;;4922004;29;20032;-78
2021/05/27 05:27:28;;;;;;;5.20;1.30;;;18.00;66.20;;;;;;4937290;29;20194;-78
2021/05/27 05:29:54;;;;;;;3.42;1.05;;;18.10;65.40;;;;;;4912332;29;20343;-78
2021/05/27 05:32:20;;;;;;;1.98;0.63;;;18.50;64.00;;;;;;4932236;29;20028;-79
2021/05/27 05:34:46;;;;;;;0.82;0.77;;;18.70;63.00;;;;;;4936754;29;20015;-79
2021/05/27 05:37:11;;;;;;;3.58;0.88;;;18.80;63.70;;;;;;4939893;29;20266;-79
2021/05/27 05:39:37;;;;;;;2.33;0.82;;;18.90;63.20;;;;;;4936083;29;20042;-78
2021/05/27 05:42:03;;;;;;;3.00;0.70;;;19.00;62.00;;;;;;4939280;29;20030;-78
2021/05/27 05:44:29;;;;;;;2.25;0.90;;;19.00;62.10;;;;;;4940388;29;20062;-79
2021/05/27 05:46:55;;;;;;;2.67;0.82;;;18.90;62.20;;;;;;4939977;29;20051;-78
2021/05/27 05:49:20;;;;;;;4.53;1.15;;;18.80;62.40;;;;;;4941348;29;20028;-78
2021/05/27 05:51:46;;;;;;;3.15;0.90;;;18.70;64.60;;;;;;4911715;29;20020;-78
2021/05/27 05:54:12;;;;;;;1.27;0.77;;;18.60;64.80;;;;;;4939890;29;20219;-79
2021/05/27 05:56:38;;;;;;;1.83;0.90;;;18.40;64.30;;;;;;4926922;29;20088;-78
2021/05/27 05:59:04;;;;;;;1.27;0.75;;;18.20;64.10;;;;;;4946651;29;20027;-78
2021/05/27 06:01:29;;;;;;;1.27;0.50;;;18.00;63.20;;;;;;4927838;29;20024;-79
2021/05/27 06:03:56;;;;;;;1.83;0.63;;;18.00;62.80;;;;;;4945285;29;20152;-78
2021/05/27 06:06:40;;;;;;;1.55;0.90;;;17.80;62.30;;;;;;4940157;29;20031;-78
2021/05/27 06:09:14;;;;;;;3.45;0.90;;;17.70;62.90;;;;;;4926747;29;20359;-78
2021/05/27 06:11:40;;;;;;;0.68;0.60;;;17.80;63.40;;;;;;4922444;29;20103;-78
2021/05/27 06:14:06;;;;;;;1.95;0.70;;;17.90;63.00;;;;;;4946344;29;20027;-78
2021/05/27 06:16:32;;;;;;;1.52;0.70;;;18.00;63.10;;;;;;4932974;29;20027;-78
2021/05/27 06:18:58;;;;;;;1.85;0.47;;;18.10;62.30;;;;;;4926993;29;20032;-79
2021/05/27 06:21:36;;;;;;;39.00;24.58;;;18.40;62.80;;;;;;4922241;29;20099;-78
2021/05/27 06:24:09;;;;;;;9.68;4.38;;;18.50;62.20;;;;;;4927480;29;20270;-78
2021/05/27 06:26:38;;;;;;;9.70;0.82;;;18.80;62.00;;;;;;4928596;29;20028;-78
2021/05/27 06:29:04;;;;;;;2.03;0.55;;;19.00;61.00;;;;;;4937511;29;20035;-78
2021/05/27 06:31:31;;;;;;;2.65;1.02;;;19.10;61.20;;;;;;4933891;29;20027;-78
2021/05/27 06:33:57;;;;;;;2.03;0.77;;;19.20;60.50;;;;;;4922112;29;20039;-77
2021/05/27 06:36:22;;;;;;;2.28;0.90;;;19.20;59.50;;;;;;4934070;29;20504;-78
2021/05/27 06:38:48;;;;;;;3.55;1.10;;;19.10;59.60;;;;;;4933371;29;20048;-78
2021/05/27 06:41:19;;;;;;;2.50;0.93;;;19.00;58.80;;;;;;4913667;29;20027;-78
2021/05/27 06:43:48;;;;;;;2.45;0.57;;;18.70;57.40;;;;;;4936203;29;20358;-78
2021/05/27 06:46:14;;;;;;;12.88;0.80;;;18.50;58.20;;;;;;4936325;29;20220;-78
2021/05/27 06:48:40;;;;;;;1.80;0.90;;;18.20;58.50;;;;;;4926203;29;20034;-78
2021/05/27 06:51:06;;;;;;;2.43;0.60;;;18.00;59.30;;;;;;4932699;29;20051;-77
2021/05/27 06:53:31;;;;;;;3.67;1.42;;;17.90;59.00;;;;;;4933000;29;20032;-77
2021/05/27 06:55:57;;;;;;;2.13;0.70;;;17.80;59.70;;;;;;4938599;29;20047;-77
2021/05/27 06:58:23;;;;;;;0.80;0.40;;;17.70;59.80;;;;;;4938833;29;20055;-78
2021/05/27 07:00:49;;;;;;;1.77;0.68;;;17.50;60.40;;;;;;4939779;29;20051;-77
2021/05/27 07:03:18;;;;;;;1.15;0.75;;;17.40;61.10;;;;;;4945001;29;20090;-78
2021/05/27 07:05:44;;;;;;;3.65;1.00;;;17.30;61.90;;;;;;4927286;29;20424;-77
2021/05/27 07:08:10;;;;;;;2.87;1.00;;;17.40;62.50;;;;;;4946015;29;20091;-77
2021/05/27 07:10:37;;;;;;;3.83;1.15;;;17.20;62.70;;;;;;4926336;29;20035;-78
2021/05/27 07:13:07;;;;;;;6.65;0.80;;;17.20;63.50;;;;;;4948715;29;20019;-77
2021/05/27 07:15:35;;;;;;;3.15;0.68;;;16.90;65.00;;;;;;4938035;29;20095;-77
2021/05/27 07:18:00;;;;;;;3.28;0.70;;;16.90;64.60;;;;;;4940523;29;20042;-78
2021/05/27 07:20:27;;;;;;;2.13;0.70;;;16.80;65.10;;;;;;4944475;29;20032;-78
2021/05/27 07:22:55;;;;;;;3.38;1.00;;;16.90;65.60;;;;;;4936968;29;20024;-78
2021/05/27 07:25:23;;;;;;;1.88;0.95;;;16.90;65.70;;;;;;4929637;29;20036;-78
2021/05/27 07:27:50;;;;;;;2.05;0.55;;;17.00;66.10;;;;;;4940765;29;20106;-77
2021/05/27 07:30:17;;;;;;;1.40;0.98;;;17.00;65.10;;;;;;4935862;29;20031;-78
2021/05/27 07:32:44;;;;;;;1.80;0.80;;;17.10;65.70;;;;;;4936368;29;20024;-77
2021/05/27 07:35:10;;;;;;;1.73;0.97;;;17.30;64.50;;;;;;4938590;29;20055;-78
2021/05/27 07:37:35;;;;;;;0.95;0.60;;;17.30;63.70;;;;;;4939716;29;20053;-78
2021/05/27 07:40:02;;;;;;;2.55;1.00;;;17.20;64.40;;;;;;4943911;29;20028;-78
2021/05/27 07:42:28;;;;;;;14.30;1.75;;;17.30;64.50;;;;;;4942806;29;20035;-78
2021/05/27 07:44:54;;;;;;;1.55;0.98;;;17.20;63.50;;;;;;4936167;29;20024;-78
2021/05/27 07:47:20;;;;;;;1.80;0.90;;;17.00;63.60;;;;;;4929113;29;20040;-78
2021/05/27 07:49:46;;;;;;;2.03;0.82;;;16.90;64.60;;;;;;4939860;29;20059;-78
2021/05/27 07:52:12;;;;;;;3.92;0.90;;;16.90;64.70;;;;;;4931825;29;20268;-78
2021/05/27 07:54:37;;;;;;;2.90;0.80;;;16.90;64.90;;;;;;4941245;29;20028;-77
2021/05/27 07:57:03;;;;;;;4.65;1.25;;;16.90;64.00;;;;;;4947936;29;20028;-78
2021/05/27 07:59:29;;;;;;;9.93;1.27;;;16.80;64.20;;;;;;4932053;29;20028;-78
2021/05/27 08:01:55;;;;;;;4.60;1.13;;;16.70;64.80;;;;;;4947953;29;20034;-78
2021/05/27 08:04:21;;;;;;;1.90;1.05;;;16.70;65.30;;;;;;4919929;29;20046;-78
2021/05/27 08:06:47;;;;;;;3.05;1.23;;;16.50;65.80;;;;;;4924249;29;20027;-78
2021/05/27 08:09:13;;;;;;;3.95;1.00;;;16.50;67.10;;;;;;4930294;29;20035;-78
2021/05/27 08:11:40;;;;;;;1.88;0.77;;;16.60;67.90;;;;;;4930208;29;20024;-77
2021/05/27 08:14:06;;;;;;;2.08;1.20;;;16.50;68.20;;;;;;4930980;29;20087;-78
2021/05/27 08:16:33;;;;;;;1.90;1.27;;;16.40;69.00;;;;;;4934473;29;20407;-77
2021/05/27 08:18:59;;;;;;;2.65;1.00;;;16.30;68.90;;;;;;4934086;29;20051;-78
2021/05/27 08:21:29;;;;;;;2.63;0.87;;;16.20;70.20;;;;;;4930288;29;20055;-78
2021/05/27 08:23:55;;;;;;;1.58;1.02;;;16.30;71.10;;;;;;4934786;29;20182;-78
2021/05/27 08:26:20;;;;;;;3.63;0.90;;;16.30;72.40;;;;;;4936940;29;20044;-76
2021/05/27 08:28:47;;;;;;;6.25;1.02;;;16.20;72.40;;;;;;4931285;29;20272;-77
2021/05/27 08:31:16;;;;;;;4.45;1.40;;;16.10;73.50;;;;;;4914928;29;20063;-77
2021/05/27 08:33:42;;;;;;;5.18;1.67;;;16.20;75.30;;;;;;4940109;29;20225;-78
2021/05/27 08:36:08;;;;;;;3.53;1.45;;;16.20;75.50;;;;;;4937333;29;20052;-78
2021/05/27 08:38:35;;;;;;;2.00;1.03;;;16.10;76.00;;;;;;4924463;29;20345;-77
2021/05/27 08:41:01;;;;;;;1.47;0.67;;;16.00;75.50;;;;;;4929403;29;20054;-78
2021/05/27 08:43:28;;;;;;;4.00;0.90;;;16.00;75.80;;;;;;4928582;29;20027;-78
2021/05/27 08:45:56;;;;;;;;;;;16.00;77.30;;;;;;4919085;29;20287;-78
2021/05/27 08:48:22;;;;;;;2.17;1.00;;;15.90;77.30;;;;;;4935612;29;19906;-78
2021/05/27 08:50:48;;;;;;;2.33;0.95;;;15.70;78.70;;;;;;4929689;29;20083;-78
2021/05/27 08:53:18;;;;;;;6.68;2.00;;;15.50;79.30;;;;;;4932427;29;20035;-78
2021/05/27 08:55:47;;;;;;;5.72;1.20;;;15.60;80.60;;;;;;4925479;29;20023;-78
2021/05/27 08:58:14;;;;;;;3.47;1.08;;;15.70;81.30;;;;;;4929052;29;20040;-78
2021/05/27 09:00:40;;;;;;;2.28;1.13;;;15.80;82.10;;;;;;4929604;29;20028;-78
2021/05/27 09:03:09;;;;;;;5.72;0.90;;;15.90;81.00;;;;;;4946402;29;20062;-78
2021/05/27 09:05:37;;;;;;;0.85;0.77;;;16.00;80.50;;;;;;4936418;29;20079;-78
2021/05/27 09:08:08;;;;;;;2.15;0.98;;;16.10;80.20;;;;;;4936439;29;20019;-77
2021/05/27 09:10:41;;;;;;;2.78;1.00;;;16.10;78.40;;;;;;4925837;29;20028;-77
2021/05/27 09:13:18;;;;;;;4.25;0.82;;;16.20;79.80;;;;;;4935764;29;20087;-77
2021/05/27 09:15:46;;;;;;;2.20;0.98;;;16.30;79.40;;;;;;4932224;29;20033;-78
2021/05/27 09:18:12;;;;;;;2.58;0.73;;;16.20;77.60;;;;;;4911285;29;20076;-77
2021/05/27 09:20:38;;;;;;;1.67;0.90;;;16.20;78.60;;;;;;4928129;29;20087;-77
2021/05/27 09:23:15;;;;;;;2.15;0.98;;;16.10;77.70;;;;;;4917715;29;20020;-77
2021/05/27 09:25:48;;;;;;;5.50;1.40;;;16.30;79.20;;;;;;4936173;29;20090;-77
2021/05/27 09:28:23;;;;;;;1.48;0.77;;;16.40;79.20;;;;;;4930930;29;20338;-77
2021/05/27 09:30:55;;;;;;;1.42;0.85;;;16.60;78.70;;;;;;4927355;29;20040;-77
2021/05/27 09:33:36;;;;;;;1.95;0.77;;;16.80;78.80;;;;;;4912944;29;20020;-78
2021/05/27 09:36:13;;;;;;;2.92;0.95;;;17.00;78.00;;;;;;4937798;29;20094;-77
2021/05/27 09:38:47;;;;;;;1.92;1.10;;;17.30;77.10;;;;;;4930669;29;20027;-77
2021/05/27 09:41:30;;;;;;;3.85;1.58;;;17.40;76.60;;;;;;4927723;29;20068;-77
2021/05/27 09:44:15;;;;;;;6.18;1.20;;;17.40;77.40;;;;;;4935635;29;20071;-77
2021/05/27 09:46:55;;;;;;;2.00;1.33;;;17.50;77.90;;;;;;4940143;29;20075;-77
2021/05/27 09:49:25;;;;;;;2.22;1.15;;;17.60;77.80;;;;;;4926201;29;20032;-77
2021/05/27 09:51:53;;;;;;;3.35;1.08;;;17.80;76.50;;;;;;4928680;29;20040;-77
2021/05/27 09:54:18;;;;;;;2.22;1.17;;;17.80;76.20;;;;;;4927375;29;20033;-77
2021/05/27 09:56:44;;;;;;;3.72;1.05;;;18.10;76.50;;;;;;4939112;29;20035;-77
2021/05/27 09:59:11;;;;;;;2.70;1.20;;;18.20;74.60;;;;;;4927167;29;20020;-77
2021/05/27 10:01:38;;;;;;;;;;;18.20;75.40;;;;;;4933611;29;20259;-77
2021/05/27 10:04:10;;;;;;;5.28;1.30;;;18.30;74.50;;;;;;4920661;29;19907;-77
2021/05/27 10:06:36;;;;;;;1.42;1.00;;;18.60;74.10;;;;;;4942014;29;20024;-77
2021/05/27 10:09:04;;;;;;;2.05;0.68;;;18.80;71.40;;;;;;4913527;29;20031;-77
2021/05/27 10:11:30;;;;;;;1.52;0.90;;;19.00;70.40;;;;;;4914156;29;20039;-77
2021/05/27 10:13:57;;;;;;;6.00;1.10;;;19.30;68.20;;;;;;4945069;29;20043;-77
2021/05/27 10:16:23;;;;;;;;;;;19.30;68.80;;;;;;4928739;29;20129;-78
2021/05/27 10:18:51;;;;;;;3.77;1.07;;;19.20;68.90;;;;;;4939032;29;19993;-77
2021/05/27 10:21:17;;;;;;;1.33;1.10;;;19.40;67.60;;;;;;4944767;29;20043;-77
2021/05/27 10:23:43;;;;;;;2.92;1.25;;;19.40;67.10;;;;;;4927214;29;20103;-78
2021/05/27 10:26:09;;;;;;;3.57;2.40;;;19.50;66.40;;;;;;4938227;29;20103;-78
2021/05/27 10:28:37;;;;;;;0.80;0.45;;;19.70;66.40;;;;;;4925786;29;20027;-77
2021/05/27 10:31:05;;;;;;;3.10;0.95;;;20.00;66.60;;;;;;4928895;29;20032;-77
2021/05/27 10:33:37;;;;;;;1.30;0.90;;;20.40;66.00;;;;;;4938777;29;20103;-77
2021/05/27 10:36:03;;;;;;;4.00;1.00;;;20.70;62.20;;;;;;4926545;29;20032;-78
2021/05/27 10:38:51;;;;;;;1.17;0.80;;;20.60;59.50;;;;;;4910386;29;20032;-78
2021/05/27 10:41:22;;;;;;;2.75;0.95;;;20.60;59.60;;;;;;4942951;29;20042;-78
2021/05/27 10:44:01;;;;;;;1.33;0.90;;;20.80;61.60;;;;;;4947943;29;20028;-78
2021/05/27 10:46:32;;;;;;;2.10;0.90;;;21.10;59.10;;;;;;4938913;29;20044;-78
2021/05/27 10:48:58;;;;;;;1.23;1.00;;;21.20;59.60;;;;;;4936854;29;20038;-78
2021/05/27 10:53:58;;;;;;;2.53;1.20;;;21.10;58.20;;;;;;4942046;29;20027;-78
2021/05/27 10:56:34;;;;;;;2.05;1.25;;;21.20;59.30;;;;;;4943821;29;20028;-78
2021/05/27 10:58:59;;;;;;;1.52;1.05;;;21.20;59.00;;;;;;4949015;29;20081;-79
2021/05/27 11:01:28;;;;;;;6.18;1.15;;;21.30;59.70;;;;;;4937513;29;20048;-78
2021/05/27 11:03:55;;;;;;;3.58;0.82;;;21.40;60.10;;;;;;4949381;29;20124;-79
2021/05/27 11:06:30;;;;;;;3.45;0.88;;;21.20;59.80;;;;;;4942770;29;20375;-78
2021/05/27 11:09:09;;;;;;;1.60;1.00;;;21.20;59.10;;;;;;4949900;29;20042;-79
2021/05/27 11:11:43;;;;;;;1.85;1.05;;;21.20;59.70;;;;;;4919471;29;20024;-79
2021/05/27 11:14:21;;;;;;;2.25;1.40;;;21.20;59.50;;;;;;4929531;29;20091;-78
2021/05/27 11:17:06;;;;;;;2.00;1.08;;;21.40;59.30;;;;;;4939303;29;20063;-79
2021/05/27 11:25:08;;;;;;;1.95;1.30;;;21.60;55.70;;;;;;4949901;29;20106;-79
2021/05/27 11:27:40;;;;;;;1.20;0.80;;;21.30;57.10;;;;;;4942283;29;20027;-79
2021/05/27 11:30:20;;;;;;;6.28;1.42;;;21.20;57.60;;;;;;4919496;29;20099;-79
2021/05/27 11:32:49;;;;;;;3.85;1.23;;;21.20;57.30;;;;;;4942898;29;20030;-79
2021/05/27 11:35:19;;;;;;;4.53;1.17;;;21.00;57.40;;;;;;4949489;29;20015;-79
2021/05/27 11:37:47;;;;;;;1.42;0.77;;;20.90;59.00;;;;;;4936835;29;20035;-79
2021/05/27 11:40:15;;;;;;;1.33;1.00;;;21.10;59.70;;;;;;4941480;29;20358;-79
2021/05/27 11:42:51;;;;;;;1.83;1.30;;;20.90;57.80;;;;;;4913732;29;20035;-79
2021/05/27 11:45:19;;;;;;;1.67;0.98;;;20.70;58.10;;;;;;4928769;29;20028;-79
2021/05/27 11:48:13;;;;;;;2.83;1.35;;;20.60;59.30;;;;;;4928989;29;20354;-79
2021/05/27 11:50:39;;;;;;;4.75;1.27;;;20.50;58.80;;;;;;4936668;29;20099;-79
2021/05/27 11:53:05;;;;;;;2.88;1.20;;;20.30;57.80;;;;;;4912317;29;20028;-79
2021/05/27 11:55:31;;;;;;;1.27;0.70;;;20.00;59.00;;;;;;4939696;29;20090;-78
2021/05/27 11:57:57;;;;;;;8.02;1.35;;;20.00;60.20;;;;;;4934842;29;20032;-79
2021/05/27 12:00:24;;;;;;;3.05;1.52;;;20.00;60.20;;;;;;4941639;29;20201;-79
2021/05/27 12:02:52;;;;;;;2.67;1.15;;;20.10;60.20;;;;;;4940599;29;20036;-79
2021/05/27 12:05:29;;;;;;;1.25;1.15;;;20.40;59.70;;;;;;4933967;29;20099;-80
2021/05/27 12:08:03;;;;;;;5.07;1.42;;;20.80;59.10;;;;;;4928845;29;20207;-79
2021/05/27 12:10:32;;;;;;;4.13;1.00;;;21.20;60.50;;;;;;4931622;29;20103;-80
2021/05/27 12:12:58;;;;;;;4.47;0.98;;;21.90;58.70;;;;;;4936759;29;20027;-80
2021/05/27 12:15:25;;;;;;;2.00;1.08;;;22.60;58.00;;;;;;4931775;29;20064;-79
2021/05/27 12:17:53;;;;;;;1.17;1.08;;;22.70;54.10;;;;;;4942612;29;20038;-79
2021/05/27 12:20:40;;;;;;;1.70;1.20;;;22.70;52.90;;;;;;4932172;29;20039;-80
2021/05/27 12:23:11;;;;;;;;;;;22.50;52.70;;;;;;4942489;29;20034;-80
2021/05/27 12:25:42;;;;;;;5.03;1.20;;;22.20;55.20;;;;;;4941115;29;19958;-80
2021/05/27 12:28:18;;;;;;;2.60;1.30;;;22.20;54.50;;;;;;4920428;29;20032;-79
2021/05/27 12:30:51;;;;;;;2.55;1.30;;;22.40;54.20;;;;;;4934372;29;20028;-79
2021/05/27 12:33:19;;;;;;;1.52;0.73;;;22.40;54.30;;;;;;4916913;29;20028;-80
2021/05/27 12:35:45;;;;;;;2.47;1.05;;;22.40;52.60;;;;;;4920066;29;20024;-79
2021/05/27 12:38:19;;;;;;;;;;;22.40;53.10;;;;;;4930803;29;20235;-80
2021/05/27 12:40:53;;;;;;;4.90;1.30;;;22.50;54.20;;;;;;4922675;29;20086;-80
2021/05/27 12:43:22;;;;;;;6.07;1.30;;;22.80;53.70;;;;;;4928565;29;20152;-80
2021/05/27 12:45:49;;;;;;;1.88;1.33;;;23.00;51.10;;;;;;4935817;29;20056;-80
2021/05/27 12:48:19;;;;;;;;;;;23.40;51.60;;;;;;4916384;29;20050;-80
2021/05/27 12:51:01;;;;;;;1.40;1.20;;;23.40;50.30;;;;;;4943974;29;19982;-80
2021/05/27 12:53:35;;;;;;;1.73;1.35;;;23.30;50.40;;;;;;4912411;29;20092;-80
2021/05/27 12:56:12;;;;;;;5.07;1.25;;;23.40;51.40;;;;;;4924442;29;20051;-80
2021/05/27 12:58:43;;;;;;;3.20;1.60;;;23.50;49.80;;;;;;4947213;29;20027;-80
2021/05/27 13:01:09;;;;;;;1.30;1.20;;;22.90;50.40;;;;;;4940532;29;20036;-80
2021/05/27 13:03:48;;;;;;;2.05;1.30;;;22.50;51.40;;;;;;4946738;29;20031;-80
2021/05/27 13:06:21;;;;;;;1.42;0.95;;;22.20;51.90;;;;;;4944666;29;20032;-80
2021/05/27 13:08:47;;;;;;;2.88;1.63;;;22.00;54.40;;;;;;4946587;29;20028;-79
2021/05/27 13:11:17;;;;;;;2.75;1.38;;;22.00;53.60;;;;;;4927662;29;20228;-80
2021/05/27 13:13:43;;;;;;;2.38;1.60;;;21.90;53.20;;;;;;4912079;29;20111;-80
2021/05/27 13:16:09;;;;;;;2.08;1.48;;;22.00;53.00;;;;;;4936117;29;20038;-80
2021/05/27 13:18:49;;;;;;;1.48;1.15;;;21.90;52.70;;;;;;4944573;29;20107;-80
2021/05/27 13:21:15;;;;;;;3.20;1.40;;;21.80;53.10;;;;;;4911871;29;20043;-80
2021/05/27 13:23:41;;;;;;;3.00;1.00;;;21.70;53.40;;;;;;4941811;29;20059;-79
2021/05/27 13:26:12;;;;;;;2.28;1.40;;;21.50;53.90;;;;;;4936684;29;20235;-80
2021/05/27 13:28:39;;;;;;;2.47;1.30;;;21.30;53.50;;;;;;4927440;29;20115;-80
2021/05/27 13:31:05;;;;;;;1.88;1.10;;;21.10;54.30;;;;;;4937129;29;20094;-80
2021/05/27 13:33:31;;;;;;;2.07;1.13;;;20.90;54.20;;;;;;4921507;29;20327;-80
2021/05/27 13:36:00;;;;;;;2.75;1.00;;;20.80;54.20;;;;;;4929605;29;20043;-80
2021/05/27 13:38:29;;;;;;;6.00;1.27;;;20.50;53.70;;;;;;4927669;29;20024;-80
2021/05/27 13:40:55;;;;;;;11.05;3.17;;;20.50;55.00;;;;;;4927266;29;20079;-80
2021/05/27 13:43:23;;;;;;;4.07;1.75;;;20.40;53.80;;;;;;4927706;29;20032;-79
2021/05/27 13:45:50;;;;;;;2.20;1.00;;;20.10;54.60;;;;;;4929691;29;20032;-80
2021/05/27 13:48:15;;;;;;;1.63;0.93;;;20.10;55.20;;;;;;4926885;29;20044;-80
2021/05/27 13:50:45;;;;;;;6.07;1.17;;;20.20;55.40;;;;;;4922651;29;20040;-80
2021/05/27 13:53:12;;;;;;;2.58;1.08;;;20.20;55.10;;;;;;4936528;29;20027;-80
2021/05/27 13:58:36;;;;;;;4.32;1.20;;;20.30;55.20;;;;;;4889116;29;20081;-80
2021/05/27 14:01:02;;;;;;;1.80;1.13;;;20.20;55.00;;;;;;4888366;29;20028;-80
2021/05/27 14:03:29;;;;;;;3.33;1.20;;;20.20;55.00;;;;;;4882871;29;20037;-79
2021/05/27 14:05:55;;;;;;;4.40;0.98;;;20.10;55.80;;;;;;4873305;29;20082;-78
2021/05/27 14:08:21;;;;;;;4.07;1.23;;;20.10;56.00;;;;;;4891055;29;20043;-77
2021/05/27 14:10:47;;;;;;;3.30;1.17;;;20.00;55.50;;;;;;4897034;29;20416;-81
2021/05/27 14:13:13;;;;;;;2.33;1.20;;;20.00;56.30;;;;;;4887641;29;20035;-81
2021/05/27 14:15:39;;;;;;;6.75;1.10;;;20.10;56.00;;;;;;4891493;29;20353;-80
2021/05/27 14:18:05;;;;;;;1.88;0.93;;;20.10;56.00;;;;;;4899446;29;20228;-80
2021/05/27 14:20:31;;;;;;;1.45;1.00;;;20.10;56.10;;;;;;4888744;29;20067;-80
2021/05/27 14:22:58;;;;;;;1.92;1.10;;;19.90;55.50;;;;;;4888777;29;20053;-80
2021/05/27 14:25:23;;;;;;;2.20;1.17;;;19.70;55.70;;;;;;4887459;29;20229;-80
2021/05/27 14:27:49;;;;;;;2.28;1.15;;;19.60;56.40;;;;;;4902297;29;20112;-80
2021/05/27 14:30:16;;;;;;;4.03;1.50;;;19.50;56.50;;;;;;4868554;29;20037;-81
2021/05/27 14:32:41;;;;;;;1.60;1.27;;;19.50;57.00;;;;;;4887242;29;20025;-81
2021/05/27 14:35:08;;;;;;;2.13;1.00;;;19.50;56.80;;;;;;4903264;29;20043;-81
2021/05/27 14:37:35;;;;;;;2.40;1.15;;;19.50;56.70;;;;;;4929089;29;20082;-80
2021/05/27 14:40:01;;;;;;;1.48;1.27;;;19.40;56.60;;;;;;4928518;29;20038;-81
2021/05/27 14:42:27;;;;;;;2.95;1.30;;;19.20;56.40;;;;;;4926069;29;20023;-81
2021/05/27 14:44:53;;;;;;;5.05;1.70;;;19.10;57.50;;;;;;4924990;29;20140;-81
2021/05/27 14:47:19;;;;;;;3.20;1.38;;;19.00;57.30;;;;;;4943127;29;20094;-80
2021/05/27 14:49:45;;;;;;;4.95;1.42;;;19.00;58.00;;;;;;4935506;29;20039;-80
2021/05/27 14:52:10;;;;;;;4.15;1.38;;;19.00;57.90;;;;;;4927391;29;20095;-80
2021/05/27 14:54:36;;;;;;;2.28;0.85;;;19.00;57.60;;;;;;4931109;29;20028;-80
2021/05/27 14:57:02;;;;;;;1.48;0.80;;;19.00;57.60;;;;;;4928424;29;20043;-81
2021/05/27 14:59:28;;;;;;;4.53;1.55;;;19.00;57.80;;;;;;4926571;29;20032;-80
2021/05/27 15:01:53;;;;;;;2.28;1.10;;;19.10;58.30;;;;;;4918871;29;20020;-80
2021/05/27 15:04:19;;;;;;;1.48;1.00;;;19.10;58.00;;;;;;4912880;29;20028;-81
2021/05/27 15:06:45;;;;;;;3.13;1.13;;;19.20;58.10;;;;;;4926701;29;20040;-80
2021/05/27 15:09:11;;;;;;;2.60;0.88;;;19.10;58.10;;;;;;4926404;29;20020;-81
2021/05/27 15:11:37;;;;;;;2.65;1.10;;;19.20;58.10;;;;;;4932955;29;20102;-81
2021/05/27 15:14:04;;;;;;;4.43;1.50;;;19.50;58.10;;;;;;4923971;29;20020;-81
2021/05/27 15:16:30;;;;;;;1.45;1.15;;;19.80;56.70;;;;;;4930309;29;20054;-81
2021/05/27 15:18:56;;;;;;;2.03;1.27;;;20.00;56.00;;;;;;4931580;29;20075;-81
2021/05/27 15:21:22;;;;;;;1.65;1.20;;;19.90;56.30;;;;;;4928442;29;20039;-81
2021/05/27 15:23:48;;;;;;;1.55;1.10;;;19.80;57.10;;;;;;4918997;29;20059;-81
2021/05/27 15:26:14;;;;;;;5.13;1.50;;;19.70;57.40;;;;;;4925202;29;20153;-81
2021/05/27 15:28:41;;;;;;;3.17;1.23;;;19.60;58.20;;;;;;4929491;29;20232;-81
2021/05/27 15:31:07;;;;;;;1.65;1.17;;;19.70;58.00;;;;;;4937208;29;20039;-80
2021/05/27 15:33:33;;;;;;;1.88;1.23;;;19.50;58.30;;;;;;4941420;29;20074;-82
2021/05/27 15:36:02;;;;;;;2.35;1.20;;;19.40;58.60;;;;;;4939755;29;20031;-80
2021/05/27 15:38:27;;;;;;;4.40;2.15;;;19.20;58.90;;;;;;4942555;29;20034;-81
2021/05/27 15:40:53;;;;;;;1.63;1.00;;;18.90;59.40;;;;;;4932310;29;20027;-80
2021/05/27 15:43:20;;;;;;;4.00;1.50;;;18.80;60.40;;;;;;4927064;29;20264;-81
2021/05/27 15:45:47;;;;;;;2.00;1.55;;;18.80;59.90;;;;;;4920643;29;20028;-80
2021/05/27 15:48:14;;;;;;;2.13;1.05;;;18.80;59.90;;;;;;4932725;29;20075;-80
2021/05/27 15:50:40;;;;;;;2.38;0.95;;;18.70;60.60;;;;;;4941326;29;20043;-81
2021/05/27 15:53:07;;;;;;;7.50;0.95;;;18.40;59.20;;;;;;4929508;29;20050;-81
2021/05/27 15:55:33;;;;;;;1.23;0.73;;;18.30;59.50;;;;;;4915380;29;20032;-81
2021/05/27 15:58:02;;;;;;;1.35;0.90;;;18.20;59.40;;;;;;4937891;29;20043;-80
2021/05/27 16:00:29;;;;;;;1.85;0.73;;;18.00;60.10;;;;;;4931472;29;20031;-80